Time;durP1;ratioP1;P1;durP2;ratioP2;P2;SDS_P1;SDS_P2;PMS_P1;PMS_P2;Temp;Humidity;BMP_temperature;BMP_pressure;BME280_temperature;BME280_humidity;BME280_pressure;Samples;Min_cycle;Max_cycle;Signal;HPM_P1;HPM_P2
2021/11/03 00:00:38;;;;;;;;;;;2.50;99.90;;;;;;5054119;28;20408;-75
2021/11/03 00:03:04;;;;;;;;;;;2.50;99.90;;;;;;5072422;28;19916;-75
2021/11/03 00:05:29;;;;;;;;;;;2.50;99.90;;;;;;5072516;28;19915;-75
2021/11/03 00:07:56;;;;;;;;;;;2.60;99.90;;;;;;5071294;28;20337;-74
2021/11/03 00:10:22;;;;;;;;;;;2.60;99.90;;;;;;5079486;28;19916;-75
2021/11/03 00:12:48;;;;;;;;;;;2.70;99.90;;;;;;5091469;28;20380;-75
2021/11/03 00:15:14;;;;;;;;;;;2.70;99.90;;;;;;5091662;28;19947;-75
2021/11/03 00:17:40;;;;;;;;;;;2.60;99.90;;;;;;5091378;28;19909;-75
2021/11/03 00:20:08;;;;;;;;;;;2.60;99.90;;;;;;5091283;28;19993;-75
2021/11/03 00:22:34;;;;;;;;;;;2.70;99.90;;;;;;5073189;28;19908;-75
2021/11/03 00:24:59;;;;;;;;;;;2.80;99.90;;;;;;5073570;28;19915;-76
2021/11/03 00:27:25;;;;;;;;;;;2.80;99.90;;;;;;5074022;28;19908;-75
2021/11/03 00:29:50;;;;;;;;;;;2.80;99.90;;;;;;5076817;28;19912;-75
2021/11/03 00:32:16;;;;;;;;;;;2.80;99.90;;;;;;5053163;28;19917;-75
2021/11/03 00:34:41;;;;;;;;;;;2.80;99.90;;;;;;5053205;28;19908;-75
2021/11/03 00:37:07;;;;;;;;;;;2.80;99.90;;;;;;5070807;28;20007;-75
2021/11/03 00:39:32;;;;;;;;;;;2.80;99.90;;;;;;5089331;28;19915;-75
2021/11/03 00:41:58;;;;;;;;;;;2.90;99.90;;;;;;5090939;28;19934;-75
2021/11/03 00:44:25;;;;;;;;;;;3.00;99.90;;;;;;5091283;28;19930;-76
2021/11/03 00:46:50;;;;;;;;;;;3.00;99.90;;;;;;5091008;28;19909;-75
2021/11/03 00:49:17;;;;;;;;;;;3.00;99.90;;;;;;5090893;28;19962;-75
2021/11/03 00:51:42;;;;;;;;;;;2.90;99.90;;;;;;5072544;28;19926;-75
2021/11/03 00:54:08;;;;;;;;;;;3.00;99.90;;;;;;5091113;28;20433;-76
2021/11/03 00:56:33;;;;;;;;;;;3.20;99.90;;;;;;5072899;28;20010;-75
2021/11/03 00:58:59;;;;;;;;;;;3.20;99.90;;;;;;5091401;28;20010;-77
2021/11/03 01:01:24;;;;;;;;;;;3.10;99.90;;;;;;5090753;28;19909;-76
2021/11/03 01:03:50;;;;;;;;;;;3.10;99.90;;;;;;5094814;28;20007;-76
2021/11/03 01:06:15;;;;;;;;;;;3.10;99.90;;;;;;5076054;28;19923;-76
2021/11/03 01:08:41;;;;;;;;;;;3.10;99.90;;;;;;5082732;28;19909;-77
2021/11/03 01:11:07;;;;;;;;;;;3.10;99.90;;;;;;5073625;28;19923;-76
2021/11/03 01:13:32;;;;;;;;;;;3.10;99.90;;;;;;5074475;28;19915;-76
2021/11/03 01:15:58;;;;;;;;;;;3.10;99.90;;;;;;5056661;28;19912;-77
2021/11/03 01:18:25;;;;;;;;;;;3.20;99.90;;;;;;5074351;28;19913;-76
2021/11/03 01:20:50;;;;;;;;;;;3.20;99.90;;;;;;5072019;28;20003;-77
2021/11/03 01:23:16;;;;;;;;;;;3.20;99.90;;;;;;5053887;28;19999;-77
2021/11/03 01:25:42;;;;;;;;;;;3.30;99.90;;;;;;5073814;28;19909;-77
2021/11/03 01:28:07;;;;;;;;;;;3.30;99.90;;;;;;5074153;28;19908;-76
2021/11/03 01:30:33;;;;;;;;;;;3.40;99.90;;;;;;5073444;28;19966;-77
2021/11/03 01:32:58;;;;;;;;;;;3.50;99.90;;;;;;5072123;28;19908;-74
2021/11/03 01:35:24;;;;;;;;;;;3.50;99.90;;;;;;5071026;28;19912;-77
2021/11/03 01:37:50;;;;;;;;;;;3.50;99.90;;;;;;5075469;28;19908;-76
2021/11/03 01:40:17;;;;;;;;;;;3.60;99.90;;;;;;5091400;28;20365;-74
2021/11/03 01:42:43;;;;;;;;;;;3.70;99.90;;;;;;5075949;28;19916;-74
2021/11/03 01:45:09;;;;;;;;;;;3.70;99.90;;;;;;5085442;28;19912;-74
2021/11/03 01:47:46;;;;;;;;;;;3.70;99.90;;;;;;5076720;28;19919;-75
2021/11/03 01:50:14;;;;;;;;;;;3.80;99.90;;;;;;5066639;28;19909;-75
2021/11/03 01:52:41;;;;;;;;;;;3.80;99.90;;;;;;5085908;28;19908;-75
2021/11/03 01:55:08;;;;;;;;;;;3.90;99.90;;;;;;5077481;28;19913;-74
2021/11/03 01:57:35;;;;;;;;;;;3.80;99.90;;;;;;5089898;28;19924;-74
2021/11/03 02:00:04;;;;;;;;;;;3.70;99.90;;;;;;5079772;28;19912;-75
2021/11/03 02:02:31;;;;;;;;;;;3.70;99.90;;;;;;5082285;28;20012;-74
2021/11/03 02:04:57;;;;;;;;;;;3.60;99.90;;;;;;5069845;28;19995;-74
2021/11/03 02:07:24;;;;;;;;;;;3.50;99.90;;;;;;5075594;28;19915;-74
2021/11/03 02:09:51;;;;;;;;;;;3.50;99.90;;;;;;5077820;28;20290;-75
2021/11/03 02:12:17;;;;;;;;;;;3.50;99.90;;;;;;5065352;28;19921;-75
2021/11/03 02:14:46;;;;;;;;;;;3.60;99.90;;;;;;5085464;28;21559;-75
2021/11/03 02:17:13;;;;;;;;;;;3.60;99.90;;;;;;5089121;28;19996;-75
2021/11/03 02:19:38;;;;;;;;;;;3.60;99.90;;;;;;5080670;28;19908;-75
2021/11/03 02:22:04;;;;;;;;;;;3.60;99.90;;;;;;5081563;28;19909;-75
2021/11/03 02:24:35;;;;;;;;;;;3.60;99.90;;;;;;5073161;28;19909;-75
2021/11/03 02:27:01;;;;;;;;;;;3.60;99.90;;;;;;5080664;28;19912;-75
2021/11/03 02:29:27;;;;;;;;;;;3.60;99.90;;;;;;5075005;28;19908;-75
2021/11/03 02:31:54;;;;;;;;;;;3.60;99.90;;;;;;5092781;28;19912;-75
2021/11/03 02:34:28;;;;;;;;;;;3.60;99.90;;;;;;5082036;28;19958;-75
2021/11/03 02:37:22;;;;;;;;;;;3.70;99.90;;;;;;5072906;28;19908;-75
2021/11/03 02:39:51;;;;;;;;;;;3.80;99.90;;;;;;5072019;28;19912;-75
2021/11/03 02:42:17;;;;;;;;;;;3.80;99.90;;;;;;5072807;28;19913;-75
2021/11/03 02:44:43;;;;;;;;;;;3.80;99.90;;;;;;5072815;28;19909;-75
2021/11/03 02:47:09;;;;;;;;;;;3.80;99.90;;;;;;5072739;28;19915;-75
2021/11/03 02:49:35;;;;;;;;;;;3.80;99.90;;;;;;5072261;28;19912;-75
2021/11/03 02:52:01;;;;;;;;;;;3.90;99.90;;;;;;5072335;28;19965;-75
2021/11/03 02:54:27;;;;;;;;;;;3.90;99.90;;;;;;5072592;28;19912;-75
2021/11/03 02:56:53;;;;;;;;;;;4.00;99.90;;;;;;5072497;28;19909;-75
2021/11/03 02:59:20;;;;;;;;;;;4.00;99.90;;;;;;5072430;28;19947;-75
2021/11/03 03:01:48;;;;;;;;;;;4.00;99.90;;;;;;5072022;28;19916;-75
2021/11/03 03:04:23;;;;;;;;;;;4.00;99.90;;;;;;5072232;28;19913;-75
2021/11/03 03:06:49;;;;;;;;;;;4.00;99.90;;;;;;5072320;28;19956;-75
2021/11/03 03:09:15;;;;;;;;;;;4.00;99.90;;;;;;5088482;28;19908;-75
2021/11/03 03:11:43;;;;;;;;;;;4.10;99.90;;;;;;5091772;28;19923;-75
2021/11/03 03:14:10;;;;;;;;;;;4.10;99.90;;;;;;5092518;28;19915;-75
2021/11/03 03:16:36;;;;;;;;;;;4.10;99.90;;;;;;5092351;28;20465;-75
2021/11/03 03:19:02;;;;;;;;;;;4.10;99.90;;;;;;5092117;28;19938;-75
2021/11/03 03:21:27;;;;;;;;;;;4.00;99.90;;;;;;5091811;28;19909;-75
2021/11/03 03:23:53;;;;;;;;;;;4.00;99.90;;;;;;5091757;28;20370;-75
2021/11/03 03:26:19;;;;;;;;;;;3.90;99.90;;;;;;5091826;28;19908;-75
2021/11/03 03:28:47;;;;;;;;;;;3.90;99.90;;;;;;5092159;28;19931;-75
2021/11/03 03:31:13;;;;;;;;;;;3.90;99.90;;;;;;5091463;28;20371;-75
2021/11/03 03:33:39;;;;;;;;;;;3.90;99.90;;;;;;5091972;28;19995;-75
2021/11/03 03:36:04;;;;;;;;;;;3.90;99.90;;;;;;5092034;28;19948;-75
2021/11/03 03:38:31;;;;;;;;;;;3.90;99.90;;;;;;5081560;28;19909;-75
2021/11/03 03:40:56;;;;;;;;;;;3.90;99.90;;;;;;5053161;28;19912;-75
2021/11/03 03:43:21;;;;;;;;;;;3.90;99.90;;;;;;5071678;28;20333;-75
2021/11/03 03:45:47;;;;;;;;;;;3.80;99.90;;;;;;5053745;28;19915;-75
2021/11/03 03:48:13;;;;;;;;;;;3.80;99.90;;;;;;5071374;28;19909;-75
2021/11/03 03:50:39;;;;;;;;;;;3.80;99.90;;;;;;5071059;28;19994;-75
2021/11/03 03:53:04;;;;;;;;;;;3.90;99.90;;;;;;5071522;28;19948;-75
2021/11/03 03:55:30;;;;;;;;;;;3.90;99.90;;;;;;5071516;28;19915;-75
2021/11/03 03:57:56;;;;;;;;;;;3.90;99.90;;;;;;5071491;28;19915;-75
2021/11/03 04:00:22;;;;;;;;;;;4.00;99.90;;;;;;5070832;28;19909;-75
2021/11/03 04:02:48;;;;;;;;;;;4.00;99.90;;;;;;5070973;28;19913;-75
2021/11/03 04:05:14;;;;;;;;;;;3.90;99.90;;;;;;5071168;28;20406;-75
2021/11/03 04:07:40;;;;;;;;;;;3.90;99.90;;;;;;5074293;28;19908;-75
2021/11/03 04:10:07;;;;;;;;;;;3.90;99.90;;;;;;5072343;28;20469;-75
2021/11/03 04:12:32;;;;;;;;;;;3.90;99.90;;;;;;5091204;28;19918;-75
2021/11/03 04:14:58;;;;;;;;;;;3.90;99.90;;;;;;5091280;28;20361;-75
2021/11/03 04:17:24;;;;;;;;;;;3.90;99.90;;;;;;5091201;28;20330;-75
2021/11/03 04:19:49;;;;;;;;;;;3.80;99.90;;;;;;5072734;28;20291;-75
2021/11/03 04:22:15;;;;;;;;;;;3.90;99.90;;;;;;5091403;28;19909;-75
2021/11/03 04:24:40;;;;;;;;;;;3.90;99.90;;;;;;5091556;28;19908;-75
2021/11/03 04:27:06;;;;;;;;;;;3.90;99.90;;;;;;5091360;28;19912;-75
2021/11/03 04:29:32;;;;;;;;;;;4.00;99.90;;;;;;5091190;28;19915;-74
2021/11/03 04:31:57;;;;;;;;;;;4.20;99.90;;;;;;5072680;28;19924;-74
2021/11/03 04:34:23;;;;;;;;;;;4.40;99.90;;;;;;5072993;28;19908;-75
2021/11/03 04:36:49;;;;;;;;;;;4.50;99.90;;;;;;5093896;28;19937;-74
2021/11/03 04:39:14;;;;;;;;;;;4.80;99.90;;;;;;5078694;28;20039;-74
2021/11/03 04:41:40;;;;;;;;;;;5.10;99.90;;;;;;5074457;28;19915;-75
2021/11/03 04:44:06;;;;;;;;;;;5.10;99.90;;;;;;5075166;28;19912;-75
2021/11/03 04:46:32;;;;;;;;;;;5.20;99.90;;;;;;5074901;28;19916;-75
2021/11/03 04:48:57;;;;;;;;;;;5.20;99.90;;;;;;5074913;28;19912;-75
2021/11/03 04:51:23;;;;;;;;;;;5.20;99.90;;;;;;5074333;28;19922;-75
2021/11/03 04:53:49;;;;;;;;;;;5.10;99.90;;;;;;5074859;28;19909;-75
2021/11/03 04:56:19;;;;;;;;;;;5.10;99.90;;;;;;5074910;28;19958;-75
2021/11/03 04:58:45;;;;;;;;;;;5.10;99.90;;;;;;5074442;28;19908;-75
2021/11/03 05:01:10;;;;;;;;;;;5.10;99.90;;;;;;5074073;28;19931;-75
2021/11/03 05:03:36;;;;;;;;;;;5.00;99.90;;;;;;5074604;28;20271;-75
2021/11/03 05:06:02;;;;;;;;;;;5.00;99.90;;;;;;5074678;28;19915;-75
2021/11/03 05:08:28;;;;;;;;;;;5.00;99.90;;;;;;5075705;28;19915;-75
2021/11/03 05:10:53;;;;;;;;;;;4.90;99.90;;;;;;5073836;28;19917;-75
2021/11/03 05:13:19;;;;;;;;;;;5.00;99.90;;;;;;5074462;28;19912;-75
2021/11/03 05:15:45;;;;;;;;;;;5.00;99.90;;;;;;5074238;28;19966;-75
2021/11/03 05:18:10;;;;;;;;;;;5.10;99.90;;;;;;5056365;28;19995;-75
2021/11/03 05:20:36;;;;;;;;;;;5.10;99.90;;;;;;5073773;28;19913;-75
2021/11/03 05:23:02;;;;;;;;;;;5.10;99.90;;;;;;5074303;28;19915;-75
2021/11/03 05:25:28;;;;;;;;;;;5.00;99.90;;;;;;5074218;28;19909;-75
2021/11/03 05:27:54;;;;;;;;;;;5.00;99.90;;;;;;5074337;28;19995;-75
2021/11/03 05:30:21;;;;;;;;;;;5.00;99.90;;;;;;5073658;28;19913;-75
2021/11/03 05:32:46;;;;;;;;;;;5.00;99.90;;;;;;5074228;28;19912;-75
2021/11/03 05:35:12;;;;;;;;;;;5.00;99.90;;;;;;5056011;28;20278;-75
2021/11/03 05:37:38;;;;;;;;;;;5.10;99.90;;;;;;5076893;28;19916;-75
2021/11/03 05:40:05;;;;;;;;;;;5.00;99.90;;;;;;5093644;28;20247;-75
2021/11/03 05:42:30;;;;;;;;;;;5.10;99.90;;;;;;5094690;28;19915;-75
2021/11/03 05:44:56;;;;;;;;;;;5.10;99.90;;;;;;5094429;28;19912;-75
2021/11/03 05:47:23;;;;;;;;;;;5.10;99.90;;;;;;5093443;28;19998;-75
2021/11/03 05:49:49;;;;;;;;;;;4.90;99.90;;;;;;5094040;28;20293;-75
2021/11/03 05:52:14;;;;;;;;;;;4.80;99.90;;;;;;5076128;28;19912;-75
2021/11/03 05:54:40;;;;;;;;;;;4.80;99.90;;;;;;5094221;28;20007;-75
2021/11/03 05:57:06;;;;;;;;;;;4.80;99.90;;;;;;5094054;28;19908;-75
2021/11/03 05:59:31;;;;;;;;;;;4.90;99.90;;;;;;5093727;28;20271;-75
2021/11/03 06:01:57;;;;;;;;;;;4.90;99.90;;;;;;5093448;28;19998;-75
2021/11/03 06:04:22;;;;;;;;;;;4.90;99.90;;;;;;5093784;28;19988;-75
2021/11/03 06:06:48;;;;;;;;;;;5.00;99.90;;;;;;5093926;28;19908;-75
2021/11/03 06:09:13;;;;;;;;;;;5.00;99.90;;;;;;5059104;28;19909;-75
2021/11/03 06:11:40;;;;;;;;;;;5.00;99.90;;;;;;5072804;28;20008;-75
2021/11/03 06:14:06;;;;;;;;;;;4.90;99.90;;;;;;5074013;28;19912;-75
2021/11/03 06:16:32;;;;;;;;;;;4.90;99.90;;;;;;5055455;28;20038;-75
2021/11/03 06:18:58;;;;;;;;;;;4.90;99.90;;;;;;5073500;28;19909;-75
2021/11/03 06:21:23;;;;;;;;;;;4.90;99.90;;;;;;5072796;28;19908;-75
2021/11/03 06:23:49;;;;;;;;;;;4.90;99.90;;;;;;5073464;28;19951;-75
2021/11/03 06:26:16;;;;;;;;;;;4.90;99.90;;;;;;5055478;28;19915;-75
2021/11/03 06:28:42;;;;;;;;;;;5.00;99.90;;;;;;5073528;28;20526;-75
2021/11/03 06:31:08;;;;;;;;;;;5.00;99.90;;;;;;5072422;28;19912;-75
2021/11/03 06:33:34;;;;;;;;;;;5.00;99.90;;;;;;5072956;28;19931;-75
2021/11/03 06:36:00;;;;;;;;;;;5.00;99.90;;;;;;5055046;28;19908;-75
2021/11/03 06:38:26;;;;;;;;;;;5.00;99.90;;;;;;5082407;28;19915;-75
2021/11/03 06:40:52;;;;;;;;;;;5.10;99.90;;;;;;5093588;28;19909;-75
2021/11/03 06:43:18;;;;;;;;;;;5.20;99.90;;;;;;5074868;28;19908;-75
2021/11/03 06:45:43;;;;;;;;;;;5.20;99.90;;;;;;5089450;28;19938;-75
2021/11/03 06:48:09;;;;;;;;;;;5.20;99.90;;;;;;5075848;28;19955;-75
2021/11/03 06:50:36;;;;;;;;;;;5.20;99.90;;;;;;5092374;28;19916;-75
2021/11/03 06:53:03;;;;;;;;;;;5.30;99.90;;;;;;5093076;28;19954;-75
2021/11/03 06:55:29;;;;;;;;;;;5.30;99.90;;;;;;5092845;28;20393;-75
2021/11/03 06:57:56;;;;;;;;;;;5.30;99.90;;;;;;5093156;28;19908;-76
2021/11/03 07:00:25;;;;;;;;;;;5.30;99.90;;;;;;5091995;28;19915;-75
2021/11/03 07:02:50;;;;;;;;;;;5.30;99.90;;;;;;5093419;28;19973;-75
2021/11/03 07:05:16;;;;;;;;;;;5.40;99.90;;;;;;5092855;28;19916;-75
2021/11/03 07:07:41;;;;;;;;;;;5.40;99.90;;;;;;5081351;28;19969;-75
2021/11/03 07:10:08;;;;;;;;;;;5.50;99.90;;;;;;5085281;28;19920;-75
2021/11/03 07:12:34;;;;;;;;;;;5.50;99.90;;;;;;5071206;28;20332;-76
2021/11/03 07:14:59;;;;;;;;;;;5.50;99.90;;;;;;5087614;28;19986;-76
2021/11/03 07:17:24;;;;;;;;;;;5.50;99.90;;;;;;5083974;28;20005;-76
2021/11/03 07:19:50;;;;;;;;;;;5.60;99.90;;;;;;5082738;28;19908;-75
2021/11/03 07:22:16;;;;;;;;;;;5.60;99.90;;;;;;5081610;28;19995;-76
2021/11/03 07:24:41;;;;;;;;;;;5.60;99.90;;;;;;5082238;28;19908;-76
2021/11/03 07:27:07;;;;;;;;;;;5.60;99.90;;;;;;5083042;28;20267;-76
2021/11/03 07:29:34;;;;;;;;;;;5.60;99.90;;;;;;5080922;28;20409;-76
2021/11/03 07:31:59;;;;;;;;;;;5.50;99.90;;;;;;5082341;28;19919;-77
2021/11/03 07:34:26;;;;;;;;;;;5.30;99.90;;;;;;5083348;28;19908;-76
2021/11/03 07:36:52;;;;;;;;;;;5.30;99.90;;;;;;5080886;28;19908;-76
2021/11/03 07:39:17;;;;;;;;;;;5.40;99.90;;;;;;5085389;28;19915;-77
2021/11/03 07:41:43;;;;;;;;;;;5.30;99.90;;;;;;5069329;28;19915;-76
2021/11/03 07:44:10;;;;;;;;;;;5.30;99.90;;;;;;5079591;28;19923;-76
2021/11/03 07:46:35;;;;;;;;;;;5.50;99.90;;;;;;5083217;28;19977;-76
2021/11/03 07:49:01;;;;;;;;;;;5.60;99.90;;;;;;5083053;28;19911;-75
2021/11/03 07:51:27;;;;;;;;;;;5.60;99.90;;;;;;5085336;28;19916;-76
2021/11/03 07:53:58;;;;;;;;;;;5.70;99.90;;;;;;5074926;28;20358;-76
2021/11/03 07:56:23;;;;;;;;;;;5.80;99.90;;;;;;5083291;28;19960;-76
2021/11/03 07:58:50;;;;;;;;;;;5.90;99.90;;;;;;5078422;28;20414;-76
2021/11/03 08:01:16;;;;;;;;;;;6.00;99.90;;;;;;5095168;28;19908;-76
2021/11/03 08:03:41;;;;;;;;;;;6.00;99.90;;;;;;5094305;28;20589;-76
2021/11/03 08:06:08;;;;;;;;;;;6.00;99.90;;;;;;5078765;28;20343;-77
2021/11/03 08:08:36;;;;;;;;;;;6.00;99.90;;;;;;5076954;28;19908;-76
2021/11/03 08:11:02;;;;;;;;;;;6.10;99.90;;;;;;5055895;28;19916;-77
2021/11/03 08:13:31;;;;;;;;;;;6.10;99.90;;;;;;5088591;28;20397;-76
2021/11/03 08:15:58;;;;;;;;;;;6.10;99.90;;;;;;5092988;28;19912;-77
2021/11/03 08:18:25;;;;;;;;;;;6.10;99.90;;;;;;5092913;28;19908;-77
2021/11/03 08:20:51;;;;;;;;;;;6.10;99.90;;;;;;5075150;28;19961;-77
2021/11/03 08:23:16;;;;;;;;;;;6.10;99.90;;;;;;5094339;28;19908;-77
2021/11/03 08:25:42;;;;;;;;;;;6.10;99.90;;;;;;5076377;28;19915;-77
2021/11/03 08:28:08;;;;;;;;;;;6.10;99.90;;;;;;5084326;28;20263;-77
2021/11/03 08:30:34;;;;;;;;;;;6.10;99.90;;;;;;5083346;28;19955;-76
2021/11/03 08:33:08;;;;;;;;;;;6.10;99.90;;;;;;5074562;28;19915;-76
2021/11/03 08:35:35;;;;;;;;;;;6.10;99.90;;;;;;5074751;28;19930;-76
2021/11/03 08:38:03;;;;;;;;;;;6.10;99.90;;;;;;5080879;28;19944;-77
2021/11/03 08:40:29;;;;;;;;;;;6.10;99.90;;;;;;5094681;28;19908;-76
2021/11/03 08:42:58;;;;;;;;;;;6.20;99.90;;;;;;5095499;28;19915;-77
2021/11/03 08:45:24;;;;;;;;;;;6.50;99.90;;;;;;5076718;28;19908;-77
2021/11/03 08:47:49;;;;;;;;;;;6.50;99.90;;;;;;5094618;28;19908;-77
2021/11/03 08:50:17;;;;;;;;;;;6.40;99.90;;;;;;5093884;28;19999;-77
2021/11/03 08:52:43;;;;;;;;;;;6.50;99.90;;;;;;5094519;28;19919;-76
2021/11/03 08:55:09;;;;;;;;;;;6.50;99.90;;;;;;5094510;28;19908;-76
2021/11/03 08:57:35;;;;;;;;;;;6.60;99.90;;;;;;5094284;28;19912;-77
2021/11/03 09:00:03;;;;;;;;;;;6.60;99.90;;;;;;5076066;28;19908;-77
2021/11/03 09:02:28;;;;;;;;;;;6.60;99.90;;;;;;5081444;28;19967;-77
2021/11/03 09:04:54;;;;;;;;;;;6.70;99.90;;;;;;5073903;28;19912;-77
2021/11/03 09:07:19;;;;;;;;;;;7.00;99.90;;;;;;5083323;28;20367;-77
2021/11/03 09:09:45;;;;;;;;;;;7.50;99.90;;;;;;5081981;28;20011;-76
2021/11/03 09:12:11;;;;;;;;;;;7.90;99.90;;;;;;5084953;28;19962;-77
2021/11/03 09:14:37;;;;;;;;;;;7.90;99.90;;;;;;5083278;28;20371;-77
2021/11/03 09:17:03;;;;;;;;;;;7.80;99.90;;;;;;5078669;28;20034;-77
2021/11/03 09:19:29;;;;;;;;;;;7.90;99.90;;;;;;5074221;28;20050;-77
2021/11/03 09:21:54;;;;;;;;;;;7.90;99.90;;;;;;5074219;28;19954;-77
2021/11/03 09:24:20;;;;;;;;;;;7.90;99.90;;;;;;5077204;28;19971;-77
2021/11/03 09:26:45;;;;;;;;;;;7.70;99.90;;;;;;5077719;28;19991;-77
2021/11/03 09:29:12;;;;;;;;;;;7.70;99.90;;;;;;5065048;28;19908;-77
2021/11/03 09:31:38;;;;;;;;;;;7.80;99.90;;;;;;5077344;28;20384;-76
2021/11/03 09:34:04;;;;;;;;;;;7.90;99.90;;;;;;5077590;28;20307;-77
2021/11/03 09:36:29;;;;;;;;;;;7.90;99.90;;;;;;5076999;28;19919;-76
2021/11/03 09:38:55;;;;;;;;;;;7.80;99.90;;;;;;5064881;28;19909;-77
2021/11/03 09:41:21;;;;;;;;;;;7.90;99.90;;;;;;5075973;28;20363;-77
2021/11/03 09:43:49;;;;;;;;;;;8.10;99.90;;;;;;5076040;28;20003;-76
2021/11/03 09:46:50;;;;;;;;;;;8.20;99.90;;;;;;5058273;28;19915;-77
2021/11/03 09:49:18;;;;;;;;;;;8.30;99.90;;;;;;5014682;28;20280;-76
2021/11/03 09:51:46;;;;;;;;;;;8.20;99.90;;;;;;5063951;28;19912;-76
2021/11/03 09:54:32;;;;;;;;;;;8.00;99.90;;;;;;5075994;28;20268;-77
2021/11/03 09:57:10;;;;;;;;;;;7.90;99.90;;;;;;5076328;28;19912;-76
2021/11/03 09:59:39;;;;;;;;;;;8.00;99.90;;;;;;5076586;28;19940;-77
2021/11/03 10:02:24;;;;;;;;;;;7.90;99.90;;;;;;5059759;28;19940;-78
2021/11/03 10:05:09;;;;;;;;;;;7.80;99.90;;;;;;5059535;28;19948;-77
2021/11/03 10:07:34;;;;;;;;;;;7.80;99.90;;;;;;5079881;28;19917;-76
2021/11/03 10:10:07;;;;;;;;;;;7.80;99.90;;;;;;5091285;28;19916;-76
2021/11/03 10:12:32;;;;;;;;;;;7.90;99.90;;;;;;5077779;28;20393;-77
2021/11/03 10:14:58;;;;;;;;;;;8.00;99.90;;;;;;5077199;28;19981;-77
2021/11/03 10:17:25;;;;;;;;;;;7.90;99.90;;;;;;5077306;28;19908;-77
2021/11/03 10:19:51;;;;;;;;;;;8.00;99.90;;;;;;5075531;28;19915;-77
2021/11/03 10:22:25;;;;;;;;;;;8.00;99.90;;;;;;5076056;28;19931;-76
2021/11/03 10:25:23;;;;;;;;;;;8.00;99.90;;;;;;5057387;28;19932;-77
2021/11/03 10:27:58;;;;;;;;;;;8.10;99.90;;;;;;5065581;28;19909;-77
2021/11/03 10:30:32;;;;;;;;;;;8.10;99.90;;;;;;5075967;28;19931;-77
2021/11/03 10:33:06;;;;;;;;;;;8.00;99.90;;;;;;5076022;28;19999;-77
2021/11/03 10:35:39;;;;;;;;;;;8.10;99.90;;;;;;5076636;28;19908;-77
2021/11/03 10:38:16;;;;;;;;;;;8.20;99.90;;;;;;5083262;28;20006;-77
2021/11/03 10:40:48;;;;;;;;;;;8.20;99.90;;;;;;5096361;28;20330;-77
2021/11/03 10:43:29;;;;;;;;;;;8.30;99.90;;;;;;5096480;28;20479;-76
2021/11/03 10:45:56;;;;;;;;;;;8.40;99.90;;;;;;5078356;28;20039;-77
2021/11/03 10:48:24;;;;;;;;;;;8.60;99.90;;;;;;5096651;28;19915;-77
2021/11/03 10:50:55;;;;;;;;;;;8.50;99.90;;;;;;5095706;28;19916;-77
2021/11/03 10:53:22;;;;;;;;;;;8.50;99.90;;;;;;5095868;28;19955;-76
2021/11/03 10:55:56;;;;;;;;;;;8.60;99.90;;;;;;5095634;28;20132;-77
2021/11/03 10:58:25;;;;;;;;;;;8.60;99.90;;;;;;5096719;28;19909;-77
2021/11/03 11:01:16;;;;;;;;;;;8.60;99.90;;;;;;5087005;28;20011;-77
2021/11/03 11:03:50;;;;;;;;;;;8.50;99.90;;;;;;5052117;28;19909;-75
2021/11/03 11:06:18;;;;;;;;;;;8.50;99.90;;;;;;5081282;28;20066;-77
2021/11/03 11:09:04;;;;;;;;;;;8.50;99.90;;;;;;5079234;28;19915;-77
2021/11/03 11:11:31;;;;;;;;;;;8.50;99.90;;;;;;5071193;28;19917;-77
2021/11/03 11:14:02;;;;;;;;;;;8.50;99.90;;;;;;5072043;28;19958;-77
2021/11/03 11:16:34;;;;;;;;;;;8.40;99.90;;;;;;5072622;28;19962;-77
2021/11/03 11:19:03;;;;;;;;;;;8.50;99.90;;;;;;5073458;28;19983;-77
2021/11/03 11:21:35;;;;;;;;;;;8.60;99.90;;;;;;5072733;28;20393;-77
2021/11/03 11:24:08;;;;;;;;;;;8.70;99.90;;;;;;5073586;28;19912;-76
2021/11/03 11:26:35;;;;;;;;;;;8.70;99.90;;;;;;5072512;28;19954;-77
2021/11/03 11:29:06;;;;;;;;;;;8.70;99.90;;;;;;5078498;28;19912;-77
2021/11/03 11:31:35;;;;;;;;;;;8.70;99.90;;;;;;5071788;28;19922;-77
2021/11/03 11:34:10;;;;;;;;;;;8.70;99.90;;;;;;5073464;28;19908;-77
2021/11/03 11:37:04;;;;;;;;;;;8.80;99.90;;;;;;5074002;28;19955;-78
2021/11/03 11:39:43;;;;;;;;;;;8.80;99.90;;;;;;5026565;28;19960;-77
2021/11/03 11:42:15;;;;;;;;;;;8.80;99.90;;;;;;5076552;28;19920;-76
2021/11/03 11:44:47;;;;;;;;;;;8.70;99.90;;;;;;5071986;28;19954;-77
2021/11/03 11:47:16;;;;;;;;;;;8.70;99.90;;;;;;5071774;28;20442;-77
2021/11/03 11:49:43;;;;;;;;;;;8.60;99.90;;;;;;5071174;28;19909;-78
2021/11/03 11:52:15;;;;;;;;;;;8.60;99.90;;;;;;5072004;28;20007;-77
2021/11/03 11:55:00;;;;;;;;;;;8.80;99.90;;;;;;5072030;28;19909;-77
2021/11/03 11:57:27;;;;;;;;;;;8.90;99.90;;;;;;5071882;28;19909;-77
2021/11/03 11:59:56;;;;;;;;;;;9.00;99.90;;;;;;5070262;28;20007;-77
2021/11/03 12:02:23;;;;;;;;;;;9.00;99.90;;;;;;5071460;28;19912;-77
2021/11/03 12:04:48;;;;;;;;;;;8.90;99.90;;;;;;5071235;28;19961;-77
2021/11/03 12:07:25;;;;;;;;;;;8.80;99.90;;;;;;5072074;28;19913;-77
2021/11/03 12:09:56;;;;;;;;;;;8.70;99.90;;;;;;5090745;28;20003;-76
2021/11/03 12:12:23;;;;;;;;;;;8.70;99.90;;;;;;5087412;28;19956;-76
2021/11/03 12:14:58;;;;;;;;;;;8.70;99.90;;;;;;5084362;28;20006;-76
2021/11/03 12:18:02;;;;;;;;;;;8.90;99.90;;;;;;5070976;28;19912;-76
2021/11/03 12:20:27;;;;;;;;;;;8.90;99.90;;;;;;4992686;28;20464;-75
2021/11/03 12:22:55;;;;;;;;;;;8.80;99.90;;;;;;5009659;28;20004;-75
2021/11/03 12:25:23;;;;;;;;;;;8.80;99.90;;;;;;5038691;28;19991;-75
2021/11/03 12:27:49;;;;;;;;;;;8.70;99.90;;;;;;5074318;28;20389;-75
2021/11/03 12:30:15;;;;;;;;;;;8.60;99.90;;;;;;5083898;28;19915;-75
2021/11/03 12:32:41;;;;;;;;;;;8.60;99.90;;;;;;5071254;28;20422;-75
2021/11/03 12:35:18;;;;;;;;;;;8.50;99.90;;;;;;5071027;28;19935;-75
2021/11/03 12:37:58;;;;;;;;;;;8.40;99.90;;;;;;5054126;28;19932;-76
2021/11/03 12:40:30;;;;;;;;;;;8.40;99.90;;;;;;5070848;28;20329;-76
2021/11/03 12:43:03;;;;;;;;;;;8.40;99.90;;;;;;5071351;28;19909;-75
2021/11/03 12:45:33;;;;;;;;;;;8.30;99.90;;;;;;5070639;28;20022;-76
2021/11/03 12:48:02;;;;;;;;;;;8.40;99.90;;;;;;5070747;28;19962;-76
2021/11/03 12:50:30;;;;;;;;;;;8.40;99.90;;;;;;5070379;28;19944;-76
2021/11/03 12:53:03;;;;;;;;;;;8.40;99.90;;;;;;5070670;28;19919;-75
2021/11/03 12:55:31;;;;;;;;;;;8.30;99.90;;;;;;5052898;28;19909;-75
2021/11/03 12:57:56;;;;;;;;;;;8.20;99.90;;;;;;5073412;28;20393;-75
2021/11/03 13:00:30;;;;;;;;;;;8.10;99.90;;;;;;5073553;28;19912;-75
2021/11/03 13:03:01;;;;;;;;;;;8.10;99.90;;;;;;5080389;28;19909;-75
2021/11/03 13:05:27;;;;;;;;;;;8.10;99.90;;;;;;5074568;28;19916;-75
2021/11/03 13:07:52;;;;;;;;;;;8.10;99.90;;;;;;5079777;28;19968;-76
2021/11/03 13:10:26;;;;;;;;;;;8.00;99.90;;;;;;5094176;28;20381;-76
2021/11/03 13:12:57;;;;;;;;;;;8.00;99.90;;;;;;5076434;28;20524;-74
2021/11/03 13:15:26;;;;;;;;;;;8.00;99.90;;;;;;5094804;28;20286;-74
2021/11/03 13:17:53;;;;;;;;;;;7.90;99.90;;;;;;5095622;28;19914;-74
2021/11/03 13:20:25;;;;;;;;;;;7.80;99.90;;;;;;5094438;28;19997;-73
2021/11/03 13:22:51;;;;;;;;;;;7.70;99.90;;;;;;5095122;28;19908;-73
2021/11/03 13:25:29;;;;;;;;;;;7.70;99.90;;;;;;5094714;28;20333;-74
2021/11/03 13:27:55;;;;;;;;;;;7.70;99.90;;;;;;5092602;28;19993;-73
2021/11/03 13:30:22;;;;;;;;;;;7.60;99.90;;;;;;5076693;28;19951;-75
2021/11/03 13:33:11;;;;;;;;;;;7.60;99.90;;;;;;5056593;28;20279;-74
2021/11/03 13:35:37;;;;;;;;;;;7.60;99.90;;;;;;5065578;28;20291;-74
2021/11/03 13:38:20;;;;;;;;;;;7.60;99.90;;;;;;5080281;28;19915;-74
2021/11/03 13:40:51;;;;;;;;;;;7.60;99.90;;;;;;5093755;28;19915;-74
2021/11/03 13:43:18;;;;;;;;;;;7.50;99.90;;;;;;5094423;28;20078;-74
2021/11/03 13:45:54;;;;;;;;;;;7.50;99.90;;;;;;5094275;28;20336;-74
2021/11/03 13:48:22;;;;;;;;;;;7.40;99.90;;;;;;5094621;28;19919;-74
2021/11/03 13:50:47;;;;;;;;;;;7.40;99.90;;;;;;5093613;28;19955;-74
2021/11/03 13:53:13;;;;;;;;;;;7.40;99.90;;;;;;5094625;28;19998;-74
2021/11/03 13:55:52;;;;;;;;;;;7.40;99.90;;;;;;5097450;28;19909;-75
2021/11/03 13:58:33;;;;;;;;;;;7.40;99.90;;;;;;5078787;28;19919;-74
2021/11/03 14:01:01;;;;;;;;;;;7.30;99.90;;;;;;5096792;28;19953;-74
2021/11/03 14:03:32;;;;;;;;;;;7.20;99.90;;;;;;5097442;28;19908;-74
2021/11/03 14:06:08;;;;;;;;;;;7.20;99.90;;;;;;5097145;28;19916;-74
2021/11/03 14:08:33;;;;;;;;;;;7.20;99.90;;;;;;5085232;28;20325;-74
2021/11/03 14:10:59;;;;;;;;;;;7.20;99.90;;;;;;5074441;28;19916;-74
2021/11/03 14:13:25;;;;;;;;;;;7.20;99.90;;;;;;5073497;28;20023;-74
2021/11/03 14:15:50;;;;;;;;;;;7.10;99.90;;;;;;5073502;28;20387;-74
2021/11/03 14:18:16;;;;;;;;;;;7.10;99.90;;;;;;5073258;28;20038;-74
2021/11/03 14:20:51;;;;;;;;;;;7.10;99.90;;;;;;5072887;28;19908;-74
2021/11/03 14:23:21;;;;;;;;;;;7.10;99.90;;;;;;5055206;28;19962;-74
2021/11/03 14:25:48;;;;;;;;;;;7.10;99.90;;;;;;5073148;28;19953;-74
2021/11/03 14:28:15;;;;;;;;;;;7.00;99.90;;;;;;5083085;28;19908;-74
2021/11/03 14:30:45;;;;;;;;;;;7.00;99.90;;;;;;5093434;28;19908;-74
2021/11/03 14:33:22;;;;;;;;;;;7.00;99.90;;;;;;5093313;28;20001;-74
2021/11/03 14:35:48;;;;;;;;;;;7.00;99.90;;;;;;5075142;28;20323;-74